Time;durP1;ratioP1;P1;durP2;ratioP2;P2;SDS_P1;SDS_P2;PMS_P1;PMS_P2;Temp;Humidity;BMP_temperature;BMP_pressure;BME280_temperature;BME280_humidity;BME280_pressure;Samples;Min_cycle;Max_cycle;Signal;HPM_P1;HPM_P2
2022/07/22 00:02:57;;;;;;;10.53;6.30;;;;;;;25.68;56.11;100575.03;3516129;83;98821;-88
2022/07/22 00:07:59;;;;;;;10.00;6.65;;;;;;;25.55;55.64;100581.48;3525068;83;98999;-86
2022/07/22 00:13:00;;;;;;;10.55;6.45;;;;;;;25.26;55.98;100591.13;3481397;83;32517;-88
2022/07/22 00:18:01;;;;;;;9.23;5.67;;;;;;;24.93;56.60;100590.22;3506212;83;99228;-88
2022/07/22 00:23:02;;;;;;;9.85;5.83;;;;;;;24.88;57.75;100584.42;3528304;83;97775;-87
2022/07/22 00:28:03;;;;;;;11.08;6.47;;;;;;;24.89;58.31;100579.73;3488707;83;98767;-88
2022/07/22 00:33:05;;;;;;;9.83;7.03;;;;;;;24.86;57.91;100590.55;3511077;83;99034;-87
2022/07/22 00:38:06;;;;;;;10.85;6.30;;;;;;;24.51;58.42;100604.73;3518983;83;98577;-88
2022/07/22 00:43:07;;;;;;;11.83;6.33;;;;;;;24.38;59.78;100600.48;3530079;83;26533;-87
2022/07/22 00:48:08;;;;;;;9.50;6.35;;;;;;;24.45;60.06;100602.38;3500354;83;98819;-87
2022/07/22 00:53:09;;;;;;;9.18;6.25;;;;;;;24.45;60.11;100612.84;3467304;83;98698;-86
2022/07/22 00:58:10;;;;;;;14.47;7.67;;;;;;;24.34;60.38;100623.76;3485152;82;99230;-87
2022/07/22 01:03:11;;;;;;;9.68;6.37;;;;;;;24.22;60.62;100625.47;3521658;83;99313;-88
2022/07/22 01:08:12;;;;;;;9.38;6.20;;;;;;;24.23;61.30;100610.16;3522805;82;98911;-88
2022/07/22 01:13:13;;;;;;;9.88;6.35;;;;;;;24.29;61.65;100598.44;3516109;83;25778;-88
2022/07/22 01:18:15;;;;;;;9.13;6.28;;;;;;;24.35;61.55;100597.98;3525638;83;98877;-89
2022/07/22 01:23:16;;;;;;;10.23;6.55;;;;;;;24.38;61.82;100581.59;3541593;83;98762;-88
2022/07/22 01:28:17;;;;;;;9.35;6.55;;;;;;;24.38;62.22;100580.79;3494697;83;99135;-89
2022/07/22 01:33:20;;;;;;;11.28;6.72;;;;;;;24.43;62.18;100582.38;3513542;84;98913;-89
2022/07/22 01:38:22;;;;;;;9.85;7.08;;;;;;;24.43;62.50;100586.59;3501465;84;98941;-89
2022/07/22 01:43:23;;;;;;;11.15;7.12;;;;;;;24.36;62.83;100572.81;3424055;85;26530;-89
2022/07/22 01:48:24;;;;;;;9.20;6.45;;;;;;;24.31;62.90;100569.20;3460539;83;99146;-88
2022/07/22 01:53:25;;;;;;;10.55;7.45;;;;;;;24.31;62.99;100576.23;3479227;84;98661;-89
2022/07/22 01:58:26;;;;;;;12.05;8.28;;;;;;;24.29;63.43;100567.50;3488797;83;99204;-89
2022/07/22 02:03:27;;;;;;;11.80;7.47;;;;;;;24.29;63.40;100563.28;3473805;84;98925;-88
2022/07/22 02:08:28;;;;;;;10.53;7.00;;;;;;;24.27;63.67;100563.59;3453999;84;99130;-89
2022/07/22 02:13:29;;;;;;;10.80;7.62;;;;;;;24.27;64.02;100546.09;3509708;83;26501;-88
2022/07/22 02:18:30;;;;;;;12.30;7.77;;;;;;;24.26;64.30;100559.22;3494762;83;98889;-88
2022/07/22 02:23:31;;;;;;;10.83;7.83;;;;;;;24.27;64.34;100556.55;3495126;84;98754;-88
2022/07/22 02:28:32;;;;;;;10.73;6.80;;;;;;;24.19;64.21;100593.28;3470116;83;99156;-87
2022/07/22 02:33:34;;;;;;;10.75;8.60;;;;;;;24.19;64.21;100593.28;3465396;83;99024;-87
2022/07/22 02:38:35;;;;;;;14.07;7.83;;;;;;;23.96;64.54;100638.80;3480343;83;99146;-88
2022/07/22 02:43:36;;;;;;;12.88;7.95;;;;;;;23.88;65.33;100609.39;3500855;83;33362;-86
2022/07/22 02:48:37;;;;;;;13.95;9.13;;;;;;;23.85;65.07;100634.20;3459895;83;99029;-88
2022/07/22 02:53:38;;;;;;;11.43;8.10;;;;;;;23.50;66.64;100658.08;3493222;83;98878;-96
2022/07/22 02:58:40;;;;;;;12.60;8.48;;;;;;;23.34;67.60;100653.46;3474296;83;98969;-95
2022/07/22 03:03:41;;;;;;;14.98;8.58;;;;;;;23.44;67.84;100651.48;3463954;82;99105;-85
2022/07/22 03:08:42;;;;;;;12.05;7.97;;;;;;;23.52;68.68;100595.17;3461700;83;99484;-86
2022/07/22 03:13:43;;;;;;;13.65;9.33;;;;;;;23.58;69.28;100576.47;3478009;83;98986;-88
2022/07/22 03:18:44;;;;;;;13.70;7.85;;;;;;;23.63;69.39;100569.64;3460614;83;98922;-87
2022/07/22 03:23:45;;;;;;;14.20;8.35;;;;;;;23.67;69.53;100556.84;3487893;83;98833;-90
2022/07/22 03:28:47;;;;;;;15.20;9.38;;;;;;;23.62;70.15;100583.53;3475360;83;98952;-89
2022/07/22 03:33:48;;;;;;;11.28;8.68;;;;;;;23.66;70.39;100581.34;3450267;83;99044;-89
2022/07/22 03:38:49;;;;;;;11.85;8.50;;;;;;;23.71;70.35;100601.81;3428541;85;99090;-88
2022/07/22 03:43:50;;;;;;;11.60;8.30;;;;;;;23.72;70.35;100616.05;3455685;85;99053;-89
2022/07/22 03:48:51;;;;;;;15.23;11.78;;;;;;;23.75;70.65;100624.95;3445944;85;98682;-88
2022/07/22 03:53:52;;;;;;;11.38;8.18;;;;;;;23.73;70.81;100624.64;3457835;85;98995;-89
2022/07/22 03:58:53;;;;;;;14.78;9.55;;;;;;;23.60;71.22;100607.72;3443187;84;99150;-88
2022/07/22 04:03:54;;;;;;;12.85;9.00;;;;;;;23.59;71.66;100605.52;3408577;86;99003;-88
2022/07/22 04:08:55;;;;;;;13.65;9.48;;;;;;;23.62;71.75;100593.97;3455857;85;99090;-88
2022/07/22 04:13:56;;;;;;;14.43;9.93;;;;;;;23.62;72.03;100598.19;3403313;86;99424;-89
2022/07/22 04:18:57;;;;;;;14.10;10.15;;;;;;;23.41;72.28;100606.04;3464404;84;98730;-88
2022/07/22 04:23:58;;;;;;;15.75;10.63;;;;;;;23.21;72.79;100607.03;3402065;86;99147;-89
2022/07/22 04:28:59;;;;;;;15.48;10.30;;;;;;;23.27;73.21;100612.98;3483109;83;99215;-88
2022/07/22 04:34:00;;;;;;;14.53;10.82;;;;;;;23.28;73.26;100624.38;3482817;83;99255;-89
2022/07/22 04:39:01;;;;;;;17.77;10.75;;;;;;;23.38;73.58;100626.64;3495079;83;99112;-88
2022/07/22 04:44:02;;;;;;;18.83;14.47;;;;;;;23.45;73.44;100618.73;3496647;83;99483;-87
2022/07/22 04:49:03;;;;;;;18.98;12.00;;;;;;;23.33;74.12;100622.38;3452976;84;98902;-86
2022/07/22 04:54:04;;;;;;;15.88;11.97;;;;;;;23.17;74.57;100614.16;3500140;84;98992;-87
2022/07/22 04:59:05;;;;;;;15.88;11.55;;;;;;;23.20;74.73;100631.52;3499253;83;99104;-87
2022/07/22 05:04:06;;;;;;;20.40;15.48;;;;;;;23.18;74.83;100633.20;3484849;84;99179;-86
2022/07/22 05:09:07;;;;;;;18.85;14.63;;;;;;;23.14;75.41;100641.73;3483771;83;99007;-87
2022/07/22 05:14:08;;;;;;;22.13;16.80;;;;;;;22.94;76.53;100653.13;3504337;84;99276;-88
2022/07/22 05:19:09;;;;;;;22.82;16.52;;;;;;;22.84;78.25;100648.67;3499044;83;98855;-88
2022/07/22 05:24:10;;;;;;;21.35;16.20;;;;;;;22.68;79.33;100649.60;3412825;86;99013;-87
2022/07/22 05:29:11;;;;;;;18.17;13.83;;;;;;;22.63;80.29;100653.02;3412318;85;99082;-87
2022/07/22 05:34:12;;;;;;;19.40;13.35;;;;;;;22.71;80.82;100657.13;3396685;85;99038;-85
2022/07/22 05:39:13;;;;;;;22.02;18.37;;;;;;;23.05;80.09;100658.50;3410359;85;99136;-85
2022/07/22 05:44:14;;;;;;;19.90;16.55;;;;;;;23.32;80.46;100662.18;3418377;86;99303;-86
2022/07/22 05:49:15;;;;;;;21.40;16.67;;;;;;;23.55;80.42;100661.70;3417999;85;98910;-85
2022/07/22 05:54:16;;;;;;;19.32;14.87;;;;;;;23.90;79.74;100652.70;3417854;86;99063;-86
2022/07/22 05:59:17;;;;;;;18.42;14.45;;;;;;;24.34;78.84;100644.25;3412687;85;99104;-86
2022/07/22 06:04:18;;;;;;;18.82;13.13;;;;;;;24.71;77.71;100643.09;3402398;86;99551;-84
2022/07/22 06:09:19;;;;;;;16.57;11.73;;;;;;;25.36;76.76;100639.78;3389738;85;99316;-86
2022/07/22 06:14:20;;;;;;;16.73;13.40;;;;;;;25.98;75.45;100631.78;3448309;84;99133;-87
2022/07/22 06:19:21;;;;;;;17.27;14.38;;;;;;;26.60;74.32;100629.09;3459936;84;98900;-86
2022/07/22 06:24:22;;;;;;;17.00;12.33;;;;;;;27.16;72.64;100619.04;3431357;84;99047;-87
2022/07/22 06:29:23;;;;;;;16.10;12.58;;;;;;;27.57;70.12;100624.44;3458955;83;99273;-88
2022/07/22 06:34:24;;;;;;;17.32;11.85;;;;;;;28.04;68.92;100622.79;3493169;84;99148;-88
2022/07/22 06:39:25;;;;;;;13.40;10.90;;;;;;;28.50;67.23;100616.64;3460596;84;99264;-88
2022/07/22 06:44:26;;;;;;;14.07;10.80;;;;;;;28.91;65.85;100618.81;3489442;84;99715;-89
2022/07/22 06:49:27;;;;;;;16.93;12.15;;;;;;;29.27;64.24;100613.95;3449127;84;99182;-90
2022/07/22 06:54:28;;;;;;;16.52;10.25;;;;;;;29.27;62.32;100613.95;3485347;84;98205;-92
2022/07/22 06:59:29;;;;;;;16.65;12.40;;;;;;;29.43;62.16;100614.09;3472195;83;99294;-96
2022/07/22 07:04:30;;;;;;;15.08;12.50;;;;;;;29.70;61.15;100605.08;3487725;84;98326;-95
2022/07/22 07:09:36;;;;;;;12.78;9.43;;;;;;;29.81;60.22;100605.16;3505959;83;99320;-96
2022/07/22 07:14:37;;;;;;;15.05;11.20;;;;;;;30.08;60.14;100612.34;3605120;79;99136;-85
2022/07/22 07:19:38;;;;;;;15.23;11.20;;;;;;;30.37;58.83;100616.27;3593104;80;99178;-85
2022/07/22 07:24:39;;;;;;;15.63;12.82;;;;;;;30.47;58.44;100617.62;3611260;81;98806;-86
2022/07/22 07:29:42;;;;;;;15.63;11.30;;;;;;;30.76;57.15;100615.83;3587852;81;98907;-85
2022/07/22 07:34:43;;;;;;;16.52;12.82;;;;;;;30.59;56.39;100622.85;3603457;81;99159;-85
2022/07/22 07:39:44;;;;;;;18.45;15.08;;;;;;;30.75;56.47;100618.55;3576201;81;99166;-86
2022/07/22 07:44:45;;;;;;;15.37;12.90;;;;;;;30.49;54.88;100621.51;3604398;81;98776;-85
2022/07/22 07:49:47;;;;;;;14.95;12.30;;;;;;;30.06;56.27;100624.82;3585728;81;99220;-82
2022/07/22 07:54:50;;;;;;;13.93;11.90;;;;;;;30.04;56.63;100623.93;3585924;81;26198;-86
2022/07/22 07:59:51;;;;;;;13.75;11.43;;;;;;;30.00;56.92;100628.27;3603535;80;99462;-83
2022/07/22 08:04:52;;;;;;;17.70;14.28;;;;;;;30.04;57.23;100626.77;3598089;81;99555;-84
2022/07/22 08:09:53;;;;;;;13.98;11.25;;;;;;;29.98;55.96;100629.42;3588881;80;99537;-83
2022/07/22 08:14:54;;;;;;;16.15;12.15;;;;;;;29.81;56.41;100627.11;3580217;81;99161;-83
2022/07/22 08:19:55;;;;;;;15.43;11.90;;;;;;;30.19;56.39;100624.55;3605056;81;99201;-85
2022/07/22 08:24:56;;;;;;;13.72;11.20;;;;;;;30.72;54.98;100628.87;3624020;80;26429;-84
2022/07/22 08:29:58;;;;;;;14.70;11.43;;;;;;;31.46;54.25;100621.59;3615192;80;98693;-84
2022/07/22 08:34:59;;;;;;;14.35;11.43;;;;;;;32.00;52.67;100622.91;3615587;81;99122;-84
2022/07/22 08:40:01;;;;;;;12.58;10.13;;;;;;;32.31;51.75;100630.38;3607165;81;99157;-83
2022/07/22 08:45:02;;;;;;;12.50;10.70;;;;;;;32.90;51.05;100634.98;3616136;81;99245;-84
2022/07/22 08:50:05;;;;;;;15.70;11.60;;;;;;;33.11;49.09;100635.50;3607699;81;99171;-85
2022/07/22 08:55:08;;;;;;;14.38;11.15;;;;;;;33.08;47.34;100635.12;3574776;81;26524;-87
2022/07/22 09:00:13;;;;;;;12.73;9.73;;;;;;;33.11;46.50;100626.16;3585337;80;98958;-83
2022/07/22 09:05:17;;;;;;;13.03;9.50;;;;;;;33.18;48.28;100617.06;3600742;80;98791;-84
2022/07/22 09:10:23;;;;;;;;;;;;;;;34.12;47.47;100632.81;3615934;80;99196;-85
2022/07/22 09:15:35;;;;;;;12.90;10.25;;;;;;;34.09;44.07;100633.87;3622090;80;85487;-85
2022/07/22 09:20:37;;;;;;;11.33;9.38;;;;;;;33.93;45.29;100634.16;3644816;80;99155;-83
2022/07/22 09:25:40;;;;;;;12.63;9.75;;;;;;;34.17;45.98;100624.17;3642309;80;26148;-83
2022/07/22 09:30:49;;;;;;;12.68;10.55;;;;;;;34.48;45.41;100627.13;3594059;80;98615;-84
2022/07/22 09:35:52;;;;;;;15.28;10.90;;;;;;;34.51;44.20;100629.69;3656446;80;99068;-84
2022/07/22 09:40:53;;;;;;;13.58;10.75;;;;;;;34.21;43.57;100622.47;3673491;80;99386;-84
2022/07/22 09:45:57;;;;;;;15.38;10.80;;;;;;;34.24;43.13;100621.38;3651468;80;99181;-83
2022/07/22 09:50:58;;;;;;;10.55;9.25;;;;;;;34.57;44.32;100614.67;3641103;80;99094;-83
2022/07/22 09:56:03;;;;;;;12.18;10.15;;;;;;;34.65;43.08;100611.30;3613119;80;99048;-84
2022/07/22 10:01:06;;;;;;;13.80;9.80;;;;;;;34.15;42.38;100616.80;3615471;80;98964;-83
2022/07/22 10:06:07;;;;;;;13.45;11.30;;;;;;;33.70;43.10;100619.94;3632724;80;99114;-83
2022/07/22 10:11:09;;;;;;;11.43;9.60;;;;;;;33.65;42.60;100617.90;3630032;80;99007;-91
2022/07/22 10:16:12;;;;;;;12.93;10.15;;;;;;;33.45;42.55;100616.87;3618882;80;99027;-84
2022/07/22 10:21:14;;;;;;;14.80;9.85;;;;;;;33.18;42.97;100612.11;3613866;80;99097;-84
2022/07/22 10:26:15;;;;;;;12.90;9.15;;;;;;;33.19;42.30;100620.03;3684451;80;99011;-86
2022/07/22 10:31:25;;;;;;;9.60;7.80;;;;;;;32.84;41.51;100617.89;3640027;80;98729;-82
2022/07/22 10:36:34;;;;;;;10.35;6.92;;;;;;;32.99;42.34;100612.63;3607712;80;98709;-87
2022/07/22 10:41:46;;;;;;;10.63;7.67;;;;;;;33.28;42.05;100616.23;3631830;80;98769;-83
2022/07/22 10:46:53;;;;;;;10.70;7.67;;;;;;;33.24;41.12;100619.22;3622267;80;107110;-84
2022/07/22 10:52:16;;;;;;;10.15;6.67;;;;;;;33.27;40.86;100613.23;3656656;80;99147;-84
2022/07/22 10:57:31;;;;;;;11.78;6.70;;;;;;;33.26;40.31;100616.61;3627248;80;99371;-83
2022/07/22 11:02:35;;;;;;;10.15;6.92;;;;;;;33.39;41.83;100617.58;3635301;80;99125;-84
2022/07/22 11:07:44;;;;;;;9.58;6.95;;;;;;;33.43;40.49;100612.37;3639608;80;98638;-85
2022/07/22 11:12:48;;;;;;;11.00;6.67;;;;;;;33.77;40.02;100614.28;3632835;80;26210;-85
2022/07/22 11:17:49;;;;;;;9.68;7.10;;;;;;;33.95;39.01;100607.92;3613612;80;98753;-84
2022/07/22 11:22:50;;;;;;;10.38;6.80;;;;;;;34.19;38.71;100597.92;3639427;80;98845;-84
2022/07/22 11:27:52;;;;;;;9.58;6.22;;;;;;;34.47;38.85;100605.55;3618155;80;98694;-83
2022/07/22 11:32:54;;;;;;;10.88;6.87;;;;;;;34.45;38.33;100607.55;3627269;80;98888;-82
2022/07/22 11:37:56;;;;;;;8.20;5.85;;;;;;;34.59;38.27;100603.45;3617941;80;99007;-82
2022/07/22 11:43:04;;;;;;;11.90;6.25;;;;;;;34.45;38.78;100602.47;3628486;80;25912;-87
2022/07/22 11:48:09;;;;;;;8.85;6.08;;;;;;;34.47;37.73;100604.91;3619090;80;99034;-83
2022/07/22 11:53:10;;;;;;;8.28;6.20;;;;;;;34.72;38.56;100606.42;3596487;80;98712;-87
2022/07/22 11:58:11;;;;;;;9.15;5.72;;;;;;;34.58;36.87;100604.77;3577380;80;98877;-83
2022/07/22 12:03:12;;;;;;;9.18;6.08;;;;;;;34.30;38.13;100594.33;3578958;80;99241;-87
2022/07/22 12:08:13;;;;;;;9.80;6.55;;;;;;;34.20;37.50;100595.97;3613175;80;98838;-83
2022/07/22 12:13:14;;;;;;;9.08;6.33;;;;;;;33.89;37.52;100588.64;3631091;80;25827;-84
2022/07/22 12:18:19;;;;;;;11.48;7.65;;;;;;;33.83;38.26;100585.08;3663690;80;98659;-83
2022/07/22 12:23:26;;;;;;;9.38;6.97;;;;;;;34.01;37.65;100586.55;3610240;80;98784;-83
2022/07/22 12:28:28;;;;;;;10.30;6.33;;;;;;;34.09;36.39;100594.66;3626889;80;99084;-85
2022/07/22 12:33:29;;;;;;;8.83;6.45;;;;;;;33.69;36.71;100579.84;3609323;80;98965;-85
2022/07/22 12:38:30;;;;;;;9.95;6.50;;;;;;;33.70;36.45;100579.97;3618661;80;98763;-84
2022/07/22 12:43:31;;;;;;;9.80;6.70;;;;;;;33.09;36.82;100582.50;3625426;80;25890;-85
2022/07/22 12:48:32;;;;;;;9.25;6.22;;;;;;;32.59;38.18;100581.19;3614669;80;98497;-84
2022/07/22 12:53:33;;;;;;;11.55;7.22;;;;;;;32.59;39.20;100570.55;3615255;80;98640;-84
2022/07/22 12:58:36;;;;;;;11.05;6.35;;;;;;;32.67;38.06;100563.01;3643782;80;98625;-82
2022/07/22 13:03:37;;;;;;;10.45;6.72;;;;;;;32.88;38.60;100556.30;3633912;80;98926;-85
2022/07/22 13:08:38;;;;;;;8.90;6.20;;;;;;;33.23;37.74;100556.34;3590950;80;99142;-84
2022/07/22 13:13:39;;;;;;;8.43;6.35;;;;;;;33.01;37.49;100557.92;3635207;80;25924;-85
2022/07/22 13:18:41;;;;;;;11.90;7.92;;;;;;;32.83;37.65;100560.75;3639021;80;98578;-85
2022/07/22 13:23:42;;;;;;;9.95;7.03;;;;;;;32.89;37.11;100550.08;3587011;80;98869;-85
2022/07/22 13:28:43;;;;;;;9.38;6.70;;;;;;;33.00;38.10;100548.58;3603779;80;98794;-83
2022/07/22 13:33:44;;;;;;;13.20;7.40;;;;;;;33.04;37.73;100553.36;3656339;80;98784;-84
2022/07/22 13:38:47;;;;;;;10.18;6.80;;;;;;;32.78;37.40;100565.83;3631754;80;99104;-84
2022/07/22 13:43:48;;;;;;;9.30;6.53;;;;;;;32.88;37.85;100558.52;3645550;80;98947;-84
2022/07/22 13:48:49;;;;;;;11.40;6.87;;;;;;;32.85;37.97;100560.23;3595872;80;98514;-84
2022/07/22 13:53:51;;;;;;;10.10;7.55;;;;;;;32.69;37.91;100566.77;3619763;80;98760;-83
2022/07/22 13:58:52;;;;;;;9.53;6.65;;;;;;;32.55;37.76;100572.92;3610389;80;98940;-82
2022/07/22 14:03:53;;;;;;;13.68;8.13;;;;;;;32.52;38.53;100559.70;3619331;80;98812;-85
2022/07/22 14:08:54;;;;;;;10.72;7.33;;;;;;;32.48;37.94;100558.44;3612216;80;98949;-84
2022/07/22 14:13:55;;;;;;;9.85;7.28;;;;;;;32.17;38.39;100557.35;3617978;80;98989;-83
2022/07/22 14:18:56;;;;;;;8.90;6.40;;;;;;;32.20;38.66;100557.08;3548832;82;98504;-82
2022/07/22 14:23:57;;;;;;;9.85;6.58;;;;;;;32.34;39.76;100563.16;3564751;82;98729;-83
2022/07/22 14:28:58;;;;;;;10.18;6.97;;;;;;;32.66;39.55;100566.37;3561073;82;98927;-86
2022/07/22 14:33:59;;;;;;;10.53;6.72;;;;;;;32.66;38.39;100557.19;3561133;82;99004;-82
2022/07/22 14:39:00;;;;;;;11.53;7.78;;;;;;;32.66;39.02;100554.97;3547727;82;99035;-86
2022/07/22 14:44:01;;;;;;;10.72;7.10;;;;;;;32.62;37.51;100556.69;3564802;82;98945;-83
2022/07/22 14:49:03;;;;;;;11.12;6.83;;;;;;;32.27;38.16;100552.95;3559727;82;98833;-84
2022/07/22 14:54:06;;;;;;;8.90;6.80;;;;;;;32.25;38.26;100552.05;3561984;82;98809;-84
2022/07/22 14:59:08;;;;;;;10.30;7.53;;;;;;;32.10;37.91;100550.78;3560607;82;98640;-85
2022/07/22 15:04:09;;;;;;;12.63;6.60;;;;;;;31.95;38.49;100551.08;3561450;82;99192;-86
2022/07/22 15:09:10;;;;;;;8.75;5.45;;;;;;;31.67;38.34;100551.75;3544293;82;99118;-81
2022/07/22 15:14:11;;;;;;;8.65;6.58;;;;;;;31.54;39.15;100552.15;3562033;81;98758;-82
2022/07/22 15:19:12;;;;;;;9.55;6.92;;;;;;;31.36;38.31;100544.11;3526845;82;98782;-86
2022/07/22 15:24:13;;;;;;;10.95;6.95;;;;;;;31.38;38.42;100542.97;3569811;82;98842;-85
2022/07/22 15:29:14;;;;;;;8.78;5.92;;;;;;;31.27;38.82;100550.84;3556363;82;98800;-82
2022/07/22 15:34:16;;;;;;;10.75;7.17;;;;;;;31.12;39.27;100545.25;3566635;82;98994;-81
2022/07/22 15:39:17;;;;;;;9.78;5.85;;;;;;;31.10;39.90;100540.70;3561737;82;98941;-85
2022/07/22 15:44:18;;;;;;;9.18;6.60;;;;;;;31.02;38.94;100544.73;3570273;81;98881;-86
2022/07/22 15:49:19;;;;;;;9.23;6.67;;;;;;;30.89;39.15;100545.84;3561581;82;98609;-84
2022/07/22 15:54:20;;;;;;;10.32;6.08;;;;;;;30.66;39.18;100542.03;3577783;82;98632;-82
2022/07/22 15:59:33;;;;;;;9.43;5.80;;;;;;;30.57;40.27;100543.67;3566592;82;99077;-82
2022/07/22 16:04:35;;;;;;;9.83;5.55;;;;;;;30.45;40.31;100536.41;3575017;82;98882;-82
2022/07/22 16:09:36;;;;;;;8.63;5.45;;;;;;;30.26;40.35;100534.66;3543256;82;98838;-82
2022/07/22 16:14:37;;;;;;;10.75;5.95;;;;;;;30.06;40.90;100536.19;3568537;81;98901;-82
2022/07/22 16:19:38;;;;;;;9.00;5.37;;;;;;;29.91;40.43;100532.74;3565698;82;98727;-82
2022/07/22 16:24:39;;;;;;;8.50;5.33;;;;;;;29.54;41.23;100534.81;3570305;82;98811;-82
2022/07/22 16:29:40;;;;;;;6.80;4.65;;;;;;;29.36;41.02;100528.07;3556515;82;98907;-82
2022/07/22 16:34:41;;;;;;;7.92;5.10;;;;;;;29.22;41.54;100528.22;3576718;82;98768;-81
2022/07/22 16:39:42;;;;;;;8.28;5.30;;;;;;;29.00;42.05;100525.17;3568850;82;98948;-81
2022/07/22 16:44:44;;;;;;;7.12;4.25;;;;;;;28.86;42.31;100531.06;3562262;81;98848;-82
2022/07/22 16:49:45;;;;;;;5.90;4.10;;;;;;;28.65;42.91;100523.88;3560154;82;98924;-81
2022/07/22 16:54:46;;;;;;;6.58;3.72;;;;;;;28.60;43.34;100530.27;3570697;82;25943;-81
2022/07/22 16:59:47;;;;;;;5.72;3.98;;;;;;;28.53;43.42;100530.70;3560388;82;98692;-81
2022/07/22 17:04:48;;;;;;;7.25;4.30;;;;;;;28.45;43.64;100533.05;3567357;82;98796;-82
2022/07/22 17:09:49;;;;;;;9.15;4.95;;;;;;;28.32;43.84;100529.75;3555521;81;98697;-82
2022/07/22 17:14:50;;;;;;;8.45;4.05;;;;;;;28.06;43.50;100524.02;3554232;80;98875;-82
2022/07/22 17:19:52;;;;;;;8.28;4.53;;;;;;;27.93;44.75;100524.22;3605012;80;98859;-82
2022/07/22 17:24:53;;;;;;;5.92;3.65;;;;;;;27.87;44.96;100521.33;3635599;80;25871;-82
2022/07/22 17:29:54;;;;;;;6.37;3.90;;;;;;;27.78;45.35;100522.86;3656502;80;98551;-82
2022/07/22 17:34:55;;;;;;;7.58;3.67;;;;;;;27.70;45.48;100529.39;3627622;80;98833;-82
2022/07/22 17:39:56;;;;;;;5.37;3.35;;;;;;;27.61;45.99;100530.91;3622425;80;98836;-82
2022/07/22 17:44:57;;;;;;;5.25;3.35;;;;;;;27.47;46.33;100531.74;3630780;80;98994;-82
2022/07/22 17:50:04;;;;;;;6.00;3.70;;;;;;;27.25;46.77;100537.80;3591674;80;98818;-82
2022/07/22 17:55:02;;;;;;;6.40;3.33;;;;;;;27.15;47.53;100541.19;3638360;80;26363;-82
2022/07/22 18:00:07;;;;;;;4.10;3.00;;;;;;;27.07;47.93;100543.62;3634017;80;98651;-82
2022/07/22 18:05:11;;;;;;;5.50;3.22;;;;;;;26.99;48.02;100541.05;3592523;80;98682;-82
2022/07/22 18:10:11;;;;;;;4.85;3.12;;;;;;;26.91;48.64;100534.21;3647369;80;98756;-82
2022/07/22 18:15:13;;;;;;;5.85;3.37;;;;;;;26.80;49.22;100537.48;3596109;80;98774;-82
2022/07/22 18:20:14;;;;;;;4.30;2.77;;;;;;;26.70;49.89;100531.77;3570277;82;98895;-82
2022/07/22 18:25:15;;;;;;;5.93;3.40;;;;;;;26.58;50.30;100525.11;3575550;82;25933;-82
2022/07/22 18:30:17;;;;;;;5.50;3.70;;;;;;;26.44;50.93;100520.20;3554411;82;98695;-82
2022/07/22 18:35:18;;;;;;;5.55;3.12;;;;;;;26.37;51.66;100519.79;3566502;82;98983;-82
2022/07/22 18:40:19;;;;;;;7.12;3.33;;;;;;;26.30;51.88;100522.95;3544742;82;98810;-82
2022/07/22 18:45:20;;;;;;;6.90;3.60;;;;;;;26.18;52.05;100520.55;3584726;82;98629;-82
2022/07/22 18:50:24;;;;;;;6.40;3.77;;;;;;;25.97;52.59;100521.63;3553767;82;98767;-82
2022/07/22 18:55:24;;;;;;;6.33;3.40;;;;;;;25.85;53.14;100528.27;3585599;82;26215;-82
2022/07/22 19:00:25;;;;;;;7.47;4.03;;;;;;;25.67;53.59;100533.22;3567511;82;98586;-82
2022/07/22 19:05:27;;;;;;;6.58;3.92;;;;;;;25.53;54.23;100539.53;3581113;82;98681;-82
2022/07/22 19:10:28;;;;;;;8.23;3.67;;;;;;;25.38;54.77;100538.03;3567694;82;98821;-82
2022/07/22 19:15:29;;;;;;;8.75;4.37;;;;;;;25.34;55.37;100543.04;3571274;80;98830;-82
2022/07/22 19:20:30;;;;;;;6.58;3.92;;;;;;;25.30;55.94;100545.27;3633482;80;98704;-82
2022/07/22 19:25:31;;;;;;;7.35;4.53;;;;;;;25.23;56.18;100544.14;3647519;80;33243;-82
2022/07/22 19:30:32;;;;;;;10.05;4.42;;;;;;;25.16;56.86;100550.12;3603733;80;98837;-82
2022/07/22 19:35:33;;;;;;;7.75;4.60;;;;;;;25.08;57.26;100557.96;3614025;80;98809;-82
2022/07/22 19:40:34;;;;;;;8.18;4.83;;;;;;;24.97;57.62;100555.65;3623473;80;98768;-82
2022/07/22 19:45:35;;;;;;;8.48;5.42;;;;;;;24.88;57.70;100564.72;3599254;80;98776;-82
2022/07/22 19:50:36;;;;;;;7.85;5.60;;;;;;;24.76;57.84;100570.69;3637054;80;98831;-82
2022/07/22 19:55:37;;;;;;;10.05;5.62;;;;;;;24.67;58.38;100577.72;3638040;80;30605;-82
2022/07/22 20:00:38;;;;;;;7.95;5.10;;;;;;;24.58;58.66;100577.70;3659671;80;98576;-82
2022/07/22 20:05:41;;;;;;;8.48;5.35;;;;;;;24.51;59.15;100578.60;3656129;80;98671;-82
2022/07/22 20:10:42;;;;;;;10.00;5.85;;;;;;;24.42;59.64;100577.97;3623846;80;98804;-82
2022/07/22 20:15:43;;;;;;;8.50;5.83;;;;;;;24.34;59.98;100582.97;3636762;80;99232;-82
2022/07/22 20:20:45;;;;;;;9.03;5.95;;;;;;;24.28;60.53;100591.88;3570687;80;98776;-82
2022/07/22 20:25:46;;;;;;;9.75;5.92;;;;;;;24.21;60.71;100596.40;3650343;80;99164;-81
2022/07/22 20:30:47;;;;;;;9.98;5.72;;;;;;;24.14;61.19;100603.73;3626988;80;98341;-82
2022/07/22 20:35:48;;;;;;;9.43;5.42;;;;;;;24.06;61.30;100598.23;3621267;80;98970;-82
2022/07/22 20:40:49;;;;;;;9.35;5.42;;;;;;;23.94;61.38;100597.11;3630188;80;99036;-82
2022/07/22 20:45:51;;;;;;;8.48;4.83;;;;;;;23.86;61.81;100607.03;3675196;80;99221;-82
2022/07/22 20:50:52;;;;;;;8.30;5.08;;;;;;;23.79;62.35;100608.73;3593275;80;99064;-82
2022/07/22 20:55:53;;;;;;;8.00;5.45;;;;;;;23.63;62.61;100582.89;3632734;80;98997;-82
2022/07/22 21:00:54;;;;;;;8.60;5.70;;;;;;;23.70;62.81;100604.47;3627153;80;98692;-82
2022/07/22 21:05:55;;;;;;;8.20;5.55;;;;;;;23.65;63.20;100606.48;3632262;80;98755;-82
2022/07/22 21:10:56;;;;;;;8.85;5.90;;;;;;;23.61;63.42;100606.47;3604262;80;98800;-82
2022/07/22 21:15:57;;;;;;;10.58;5.80;;;;;;;23.55;63.55;100602.70;3622484;80;98831;-82
2022/07/22 21:21:00;;;;;;;10.45;6.40;;;;;;;23.47;63.81;100594.36;3572444;80;99021;-82
2022/07/22 21:26:01;;;;;;;7.72;5.30;;;;;;;23.39;63.96;100593.88;3654142;80;99046;-82
2022/07/22 21:31:03;;;;;;;9.25;5.45;;;;;;;23.29;64.02;100599.28;3634889;80;98493;-82
2022/07/22 21:36:04;;;;;;;8.38;5.70;;;;;;;23.22;64.48;100592.51;3634461;80;99281;-82
2022/07/22 21:41:05;;;;;;;11.43;5.83;;;;;;;23.17;64.67;100593.09;3617191;80;99038;-82
2022/07/22 21:46:06;;;;;;;10.93;5.60;;;;;;;23.10;64.87;100591.94;3623968;80;99525;-82
2022/07/22 21:51:07;;;;;;;9.60;6.03;;;;;;;23.04;65.17;100595.81;3584397;80;99428;-82
2022/07/22 22:01:28;;;;;;;10.75;5.90;;;;;;;22.90;65.69;100585.89;3617623;80;98145;-82
2022/07/22 22:06:29;;;;;;;10.10;5.70;;;;;;;22.83;65.99;100582.56;3610314;80;99218;-83
2022/07/22 22:11:30;;;;;;;9.85;5.72;;;;;;;22.75;66.21;100581.23;3634991;80;99299;-83
2022/07/22 22:16:32;;;;;;;8.78;6.05;;;;;;;22.70;66.36;100581.81;3593434;80;99212;-82
2022/07/22 22:21:34;;;;;;;8.93;6.65;;;;;;;22.59;66.51;100585.62;3630773;80;99192;-83
2022/07/22 22:26:38;;;;;;;9.08;6.15;;;;;;;22.50;66.85;100583.52;3601420;80;98806;-83
2022/07/22 22:31:41;;;;;;;9.10;5.65;;;;;;;22.45;67.16;100581.29;3613156;80;54816;-83
2022/07/22 22:36:42;;;;;;;9.50;6.62;;;;;;;22.44;67.31;100578.94;3623687;80;98859;-83
2022/07/22 22:41:43;;;;;;;8.83;5.80;;;;;;;22.37;67.19;100579.16;3623083;80;97927;-83
2022/07/22 22:46:44;;;;;;;7.95;5.58;;;;;;;22.29;67.55;100586.26;3634849;80;99308;-83
2022/07/22 22:51:45;;;;;;;7.92;5.85;;;;;;;22.24;67.96;100579.19;3590147;80;98786;-82
2022/07/22 22:56:46;;;;;;;7.70;5.42;;;;;;;22.15;68.06;100576.91;3597102;80;99109;-83
2022/07/22 23:01:47;;;;;;;11.12;6.67;;;;;;;22.13;68.36;100589.97;3663781;80;98760;-82
2022/07/22 23:06:49;;;;;;;11.68;6.50;;;;;;;22.09;67.95;100591.34;3631320;80;98675;-83
2022/07/22 23:11:50;;;;;;;9.48;6.60;;;;;;;22.00;68.34;100599.63;3614335;80;98750;-83
2022/07/22 23:16:51;;;;;;;9.75;6.50;;;;;;;21.91;68.54;100592.55;3650590;80;98801;-83